Terminal Aerodrome Forecast
Issued by NWS Cleveland, OH

Home | Current Version | Previous Version | Graphics & Text | Print | Product List | Glossary On
Versions: 1 2 3 4 5 6 7 8 9 10 11 12 13 14 15 16 17 18 19 20
000
FTUS41 KCLE 061418 AAA
TAFCLE
TAF AMD
KCLE 061418Z 0614/0718 VRB03KT P6SM SCT100
     FM061700 36006KT P6SM VCSH SCT050 BKN100
     FM070200 19004KT P6SM SCT100
     FM071100 20010KT P6SM SCT100 BKN250=

USA.gov is the U.S. government's official web portal to all federal, state and local government web resources and services.